sensor_id;sensor_type;location;lat;lon;timestamp;temperature;humidity
74384;DHT22;62824;52.994;-3.936;2022-12-11T00:00:39;2.40;99.90
74384;DHT22;62824;52.994;-3.936;2022-12-11T00:03:05;2.40;99.90
74384;DHT22;62824;52.994;-3.936;2022-12-11T00:05:31;2.40;99.90
74384;DHT22;62824;52.994;-3.936;2022-12-11T00:07:57;2.40;99.90
74384;DHT22;62824;52.994;-3.936;2022-12-11T00:10:23;2.40;99.90
74384;DHT22;62824;52.994;-3.936;2022-12-11T00:12:49;2.30;99.90
74384;DHT22;62824;52.994;-3.936;2022-12-11T00:15:15;2.20;99.90
74384;DHT22;62824;52.994;-3.936;2022-12-11T00:17:41;2.20;99.90
74384;DHT22;62824;52.994;-3.936;2022-12-11T00:20:07;2.10;99.90
74384;DHT22;62824;52.994;-3.936;2022-12-11T00:22:33;2.00;99.90
74384;DHT22;62824;52.994;-3.936;2022-12-11T00:24:59;1.90;99.90
74384;DHT22;62824;52.994;-3.936;2022-12-11T00:27:25;1.90;99.90
74384;DHT22;62824;52.994;-3.936;2022-12-11T00:29:51;2.00;99.90
74384;DHT22;62824;52.994;-3.936;2022-12-11T00:32:16;1.90;99.90
74384;DHT22;62824;52.994;-3.936;2022-12-11T00:34:42;1.90;99.90
74384;DHT22;62824;52.994;-3.936;2022-12-11T00:37:08;1.90;99.90
74384;DHT22;62824;52.994;-3.936;2022-12-11T00:39:33;2.00;99.90
74384;DHT22;62824;52.994;-3.936;2022-12-11T00:41:59;2.00;99.90
74384;DHT22;62824;52.994;-3.936;2022-12-11T00:44:25;2.00;99.90
74384;DHT22;62824;52.994;-3.936;2022-12-11T00:46:51;1.90;99.90
74384;DHT22;62824;52.994;-3.936;2022-12-11T00:49:16;1.90;99.90
74384;DHT22;62824;52.994;-3.936;2022-12-11T00:51:42;2.00;99.90
74384;DHT22;62824;52.994;-3.936;2022-12-11T00:54:08;2.00;99.90
74384;DHT22;62824;52.994;-3.936;2022-12-11T00:56:34;2.10;99.90
74384;DHT22;62824;52.994;-3.936;2022-12-11T00:58:59;2.10;99.90
74384;DHT22;62824;52.994;-3.936;2022-12-11T01:01:25;2.10;99.90
74384;DHT22;62824;52.994;-3.936;2022-12-11T01:03:52;2.20;99.90
74384;DHT22;62824;52.994;-3.936;2022-12-11T01:06:21;2.20;99.90
74384;DHT22;62824;52.994;-3.936;2022-12-11T01:08:47;2.20;99.90
74384;DHT22;62824;52.994;-3.936;2022-12-11T01:11:33;2.20;99.90
74384;DHT22;62824;52.994;-3.936;2022-12-11T01:13:59;2.20;99.90
74384;DHT22;62824;52.994;-3.936;2022-12-11T01:16:25;2.10;99.90
74384;DHT22;62824;52.994;-3.936;2022-12-11T01:18:50;2.00;99.90
74384;DHT22;62824;52.994;-3.936;2022-12-11T01:21:16;2.10;99.90
74384;DHT22;62824;52.994;-3.936;2022-12-11T01:23:42;2.10;99.90
74384;DHT22;62824;52.994;-3.936;2022-12-11T01:26:10;2.20;99.90
74384;DHT22;62824;52.994;-3.936;2022-12-11T01:28:37;2.10;99.90
74384;DHT22;62824;52.994;-3.936;2022-12-11T01:31:07;2.00;99.90
74384;DHT22;62824;52.994;-3.936;2022-12-11T01:33:33;2.00;99.90
74384;DHT22;62824;52.994;-3.936;2022-12-11T01:35:59;2.00;99.90
74384;DHT22;62824;52.994;-3.936;2022-12-11T01:38:25;2.10;99.90
74384;DHT22;62824;52.994;-3.936;2022-12-11T01:40:50;2.20;99.90
74384;DHT22;62824;52.994;-3.936;2022-12-11T01:43:17;2.30;99.90
74384;DHT22;62824;52.994;-3.936;2022-12-11T01:45:45;2.20;99.90
74384;DHT22;62824;52.994;-3.936;2022-12-11T01:48:15;2.20;99.90
74384;DHT22;62824;52.994;-3.936;2022-12-11T01:50:54;2.20;99.90
74384;DHT22;62824;52.994;-3.936;2022-12-11T01:53:24;2.20;99.90
74384;DHT22;62824;52.994;-3.936;2022-12-11T01:55:54;2.10;99.90
74384;DHT22;62824;52.994;-3.936;2022-12-11T01:58:21;2.00;99.90
74384;DHT22;62824;52.994;-3.936;2022-12-11T02:00:50;1.80;99.90
74384;DHT22;62824;52.994;-3.936;2022-12-11T02:03:17;1.70;99.90
74384;DHT22;62824;52.994;-3.936;2022-12-11T02:05:43;1.60;99.90
74384;DHT22;62824;52.994;-3.936;2022-12-11T02:08:09;1.50;99.90
74384;DHT22;62824;52.994;-3.936;2022-12-11T02:13:47;1.50;99.90
74384;DHT22;62824;52.994;-3.936;2022-12-11T02:16:18;1.50;99.90
74384;DHT22;62824;52.994;-3.936;2022-12-11T02:21:31;1.50;99.90
74384;DHT22;62824;52.994;-3.936;2022-12-11T02:27:00;1.50;99.90
74384;DHT22;62824;52.994;-3.936;2022-12-11T02:29:35;1.30;99.90
74384;DHT22;62824;52.994;-3.936;2022-12-11T02:32:08;1.20;99.90
74384;DHT22;62824;52.994;-3.936;2022-12-11T02:37:29;1.10;99.90
74384;DHT22;62824;52.994;-3.936;2022-12-11T02:39:56;1.10;99.90
74384;DHT22;62824;52.994;-3.936;2022-12-11T02:42:26;1.10;99.90
74384;DHT22;62824;52.994;-3.936;2022-12-11T02:44:54;1.10;99.90
74384;DHT22;62824;52.994;-3.936;2022-12-11T02:47:22;1.20;99.90
74384;DHT22;62824;52.994;-3.936;2022-12-11T02:49:51;1.30;99.90
74384;DHT22;62824;52.994;-3.936;2022-12-11T02:52:20;1.30;99.90
74384;DHT22;62824;52.994;-3.936;2022-12-11T02:54:48;1.30;99.90
74384;DHT22;62824;52.994;-3.936;2022-12-11T02:57:26;1.30;99.90
74384;DHT22;62824;52.994;-3.936;2022-12-11T02:59:52;1.40;99.90
74384;DHT22;62824;52.994;-3.936;2022-12-11T03:02:18;1.50;99.90
74384;DHT22;62824;52.994;-3.936;2022-12-11T03:04:46;1.50;99.90
74384;DHT22;62824;52.994;-3.936;2022-12-11T03:07:21;1.60;99.90
74384;DHT22;62824;52.994;-3.936;2022-12-11T03:09:48;1.60;99.90
74384;DHT22;62824;52.994;-3.936;2022-12-11T03:12:21;1.60;99.90
74384;DHT22;62824;52.994;-3.936;2022-12-11T03:14:48;1.60;99.90
74384;DHT22;62824;52.994;-3.936;2022-12-11T03:17:27;1.60;99.90
74384;DHT22;62824;52.994;-3.936;2022-12-11T03:22:48;1.50;99.90
74384;DHT22;62824;52.994;-3.936;2022-12-11T03:25:15;1.40;99.90
74384;DHT22;62824;52.994;-3.936;2022-12-11T03:27:53;1.40;99.90
74384;DHT22;62824;52.994;-3.936;2022-12-11T03:30:22;1.40;99.90
74384;DHT22;62824;52.994;-3.936;2022-12-11T03:32:56;1.30;99.90
74384;DHT22;62824;52.994;-3.936;2022-12-11T03:35:27;1.30;99.90
74384;DHT22;62824;52.994;-3.936;2022-12-11T03:37:55;1.30;99.90
74384;DHT22;62824;52.994;-3.936;2022-12-11T03:40:23;1.30;99.90
74384;DHT22;62824;52.994;-3.936;2022-12-11T03:42:51;1.40;99.90
74384;DHT22;62824;52.994;-3.936;2022-12-11T03:45:19;1.30;99.90
74384;DHT22;62824;52.994;-3.936;2022-12-11T03:47:46;1.30;99.90
74384;DHT22;62824;52.994;-3.936;2022-12-11T03:50:13;1.30;99.90
74384;DHT22;62824;52.994;-3.936;2022-12-11T03:52:41;1.20;99.90
74384;DHT22;62824;52.994;-3.936;2022-12-11T03:55:11;1.20;99.90
74384;DHT22;62824;52.994;-3.936;2022-12-11T03:57:37;1.20;99.90
74384;DHT22;62824;52.994;-3.936;2022-12-11T04:00:09;1.10;99.90
74384;DHT22;62824;52.994;-3.936;2022-12-11T04:02:35;1.00;99.90
74384;DHT22;62824;52.994;-3.936;2022-12-11T04:05:01;1.10;99.90
74384;DHT22;62824;52.994;-3.936;2022-12-11T04:07:27;1.00;99.90
74384;DHT22;62824;52.994;-3.936;2022-12-11T04:09:53;0.90;99.90
74384;DHT22;62824;52.994;-3.936;2022-12-11T04:12:20;0.90;99.90
74384;DHT22;62824;52.994;-3.936;2022-12-11T04:14:45;0.80;99.90
74384;DHT22;62824;52.994;-3.936;2022-12-11T04:17:31;0.80;99.90
74384;DHT22;62824;52.994;-3.936;2022-12-11T04:20:16;0.80;99.90
74384;DHT22;62824;52.994;-3.936;2022-12-11T04:23:08;0.80;99.90
74384;DHT22;62824;52.994;-3.936;2022-12-11T04:25:54;0.80;99.90
74384;DHT22;62824;52.994;-3.936;2022-12-11T04:28:27;1.00;99.90
74384;DHT22;62824;52.994;-3.936;2022-12-11T04:30:53;1.00;99.90
74384;DHT22;62824;52.994;-3.936;2022-12-11T04:33:18;0.90;99.90
74384;DHT22;62824;52.994;-3.936;2022-12-11T04:35:44;0.90;99.90
74384;DHT22;62824;52.994;-3.936;2022-12-11T04:38:10;1.00;99.90
74384;DHT22;62824;52.994;-3.936;2022-12-11T04:40:36;1.00;99.90
74384;DHT22;62824;52.994;-3.936;2022-12-11T04:43:01;1.00;99.90
74384;DHT22;62824;52.994;-3.936;2022-12-11T04:45:27;1.00;99.90
74384;DHT22;62824;52.994;-3.936;2022-12-11T04:47:53;1.00;99.90
74384;DHT22;62824;52.994;-3.936;2022-12-11T04:50:19;1.00;99.90
74384;DHT22;62824;52.994;-3.936;2022-12-11T04:52:45;1.00;99.90
74384;DHT22;62824;52.994;-3.936;2022-12-11T04:55:10;1.00;99.90
74384;DHT22;62824;52.994;-3.936;2022-12-11T04:57:36;1.00;99.90
74384;DHT22;62824;52.994;-3.936;2022-12-11T05:00:07;1.10;99.90
74384;DHT22;62824;52.994;-3.936;2022-12-11T05:02:36;1.10;99.90
74384;DHT22;62824;52.994;-3.936;2022-12-11T05:05:04;1.10;99.90
74384;DHT22;62824;52.994;-3.936;2022-12-11T05:07:30;1.00;99.90
74384;DHT22;62824;52.994;-3.936;2022-12-11T05:09:56;1.00;99.90
74384;DHT22;62824;52.994;-3.936;2022-12-11T05:12:22;0.90;99.90
74384;DHT22;62824;52.994;-3.936;2022-12-11T05:14:51;0.80;99.90
74384;DHT22;62824;52.994;-3.936;2022-12-11T05:17:18;0.70;99.90
74384;DHT22;62824;52.994;-3.936;2022-12-11T05:19:45;0.70;99.90
74384;DHT22;62824;52.994;-3.936;2022-12-11T05:22:11;0.80;99.90
74384;DHT22;62824;52.994;-3.936;2022-12-11T05:24:36;0.80;99.90
74384;DHT22;62824;52.994;-3.936;2022-12-11T05:27:02;0.80;99.90
74384;DHT22;62824;52.994;-3.936;2022-12-11T05:29:28;0.90;99.90
74384;DHT22;62824;52.994;-3.936;2022-12-11T05:31:54;0.90;99.90
74384;DHT22;62824;52.994;-3.936;2022-12-11T05:34:20;0.90;99.90
74384;DHT22;62824;52.994;-3.936;2022-12-11T05:36:45;0.90;99.90
74384;DHT22;62824;52.994;-3.936;2022-12-11T05:39:11;0.90;99.90
74384;DHT22;62824;52.994;-3.936;2022-12-11T05:41:37;1.00;99.90
74384;DHT22;62824;52.994;-3.936;2022-12-11T05:44:03;0.90;99.90
74384;DHT22;62824;52.994;-3.936;2022-12-11T05:46:29;0.80;99.90
74384;DHT22;62824;52.994;-3.936;2022-12-11T05:49:00;0.80;99.90
74384;DHT22;62824;52.994;-3.936;2022-12-11T05:51:27;0.80;99.90
74384;DHT22;62824;52.994;-3.936;2022-12-11T05:53:55;0.80;99.90
74384;DHT22;62824;52.994;-3.936;2022-12-11T05:56:27;0.70;99.90
74384;DHT22;62824;52.994;-3.936;2022-12-11T05:58:53;0.70;99.90
74384;DHT22;62824;52.994;-3.936;2022-12-11T06:01:41;0.70;99.90
74384;DHT22;62824;52.994;-3.936;2022-12-11T06:04:08;0.70;99.90
74384;DHT22;62824;52.994;-3.936;2022-12-11T06:06:35;0.70;99.90
74384;DHT22;62824;52.994;-3.936;2022-12-11T06:09:03;0.70;99.90
74384;DHT22;62824;52.994;-3.936;2022-12-11T06:11:30;0.60;99.90
74384;DHT22;62824;52.994;-3.936;2022-12-11T06:13:56;0.60;99.90
74384;DHT22;62824;52.994;-3.936;2022-12-11T06:16:22;0.50;99.90
74384;DHT22;62824;52.994;-3.936;2022-12-11T06:18:49;0.50;99.90
74384;DHT22;62824;52.994;-3.936;2022-12-11T06:21:17;0.60;99.90
74384;DHT22;62824;52.994;-3.936;2022-12-11T06:23:45;0.60;99.90
74384;DHT22;62824;52.994;-3.936;2022-12-11T06:26:11;0.60;99.90
74384;DHT22;62824;52.994;-3.936;2022-12-11T06:28:38;0.70;99.90
74384;DHT22;62824;52.994;-3.936;2022-12-11T06:31:04;0.70;99.90
74384;DHT22;62824;52.994;-3.936;2022-12-11T06:33:31;0.70;99.90
74384;DHT22;62824;52.994;-3.936;2022-12-11T06:36:04;0.80;99.90
74384;DHT22;62824;52.994;-3.936;2022-12-11T06:38:31;0.80;99.90
74384;DHT22;62824;52.994;-3.936;2022-12-11T06:40:58;0.80;99.90
74384;DHT22;62824;52.994;-3.936;2022-12-11T06:43:24;0.90;99.90
74384;DHT22;62824;52.994;-3.936;2022-12-11T06:45:50;0.90;99.90
74384;DHT22;62824;52.994;-3.936;2022-12-11T06:48:17;0.90;99.90
74384;DHT22;62824;52.994;-3.936;2022-12-11T06:50:43;1.00;99.90
74384;DHT22;62824;52.994;-3.936;2022-12-11T06:53:10;1.00;99.90
74384;DHT22;62824;52.994;-3.936;2022-12-11T06:55:36;1.10;99.90
74384;DHT22;62824;52.994;-3.936;2022-12-11T06:58:02;1.10;99.90
74384;DHT22;62824;52.994;-3.936;2022-12-11T07:00:28;1.10;99.90
74384;DHT22;62824;52.994;-3.936;2022-12-11T07:02:54;1.00;99.90
74384;DHT22;62824;52.994;-3.936;2022-12-11T07:05:20;1.10;99.90
74384;DHT22;62824;52.994;-3.936;2022-12-11T07:07:46;1.00;99.90
74384;DHT22;62824;52.994;-3.936;2022-12-11T07:10:11;1.10;99.90
74384;DHT22;62824;52.994;-3.936;2022-12-11T07:12:37;1.10;99.90
74384;DHT22;62824;52.994;-3.936;2022-12-11T07:15:04;1.10;99.90
74384;DHT22;62824;52.994;-3.936;2022-12-11T07:17:30;1.20;99.90
74384;DHT22;62824;52.994;-3.936;2022-12-11T07:19:56;1.10;99.90
74384;DHT22;62824;52.994;-3.936;2022-12-11T07:22:22;1.10;99.90
74384;DHT22;62824;52.994;-3.936;2022-12-11T07:24:48;1.10;99.90
74384;DHT22;62824;52.994;-3.936;2022-12-11T07:27:13;1.10;99.90
74384;DHT22;62824;52.994;-3.936;2022-12-11T07:29:39;1.10;99.90
74384;DHT22;62824;52.994;-3.936;2022-12-11T07:32:05;1.10;99.90
74384;DHT22;62824;52.994;-3.936;2022-12-11T07:34:31;1.10;99.90
74384;DHT22;62824;52.994;-3.936;2022-12-11T07:36:57;1.10;99.90
74384;DHT22;62824;52.994;-3.936;2022-12-11T07:39:23;1.10;99.90
74384;DHT22;62824;52.994;-3.936;2022-12-11T07:41:48;1.00;99.90
74384;DHT22;62824;52.994;-3.936;2022-12-11T07:44:14;1.10;99.90
74384;DHT22;62824;52.994;-3.936;2022-12-11T07:46:40;1.00;99.90
74384;DHT22;62824;52.994;-3.936;2022-12-11T07:49:06;1.00;99.90
74384;DHT22;62824;52.994;-3.936;2022-12-11T07:51:34;1.00;99.90
74384;DHT22;62824;52.994;-3.936;2022-12-11T07:54:03;1.00;99.90
74384;DHT22;62824;52.994;-3.936;2022-12-11T07:56:31;1.00;99.90
74384;DHT22;62824;52.994;-3.936;2022-12-11T07:59:04;1.00;99.90
74384;DHT22;62824;52.994;-3.936;2022-12-11T08:01:31;0.90;99.90
74384;DHT22;62824;52.994;-3.936;2022-12-11T08:03:57;0.90;99.90
74384;DHT22;62824;52.994;-3.936;2022-12-11T08:06:28;0.90;99.90
74384;DHT22;62824;52.994;-3.936;2022-12-11T08:08:58;0.90;99.90
74384;DHT22;62824;52.994;-3.936;2022-12-11T08:11:24;0.90;99.90
74384;DHT22;62824;52.994;-3.936;2022-12-11T08:13:50;0.80;99.90
74384;DHT22;62824;52.994;-3.936;2022-12-11T08:16:16;0.80;99.90
74384;DHT22;62824;52.994;-3.936;2022-12-11T08:18:43;0.80;99.90
74384;DHT22;62824;52.994;-3.936;2022-12-11T08:21:18;0.80;99.90
74384;DHT22;62824;52.994;-3.936;2022-12-11T08:23:44;0.80;99.90
74384;DHT22;62824;52.994;-3.936;2022-12-11T08:26:25;0.80;99.90
74384;DHT22;62824;52.994;-3.936;2022-12-11T08:28:52;0.90;99.90
74384;DHT22;62824;52.994;-3.936;2022-12-11T08:31:18;0.90;99.90
74384;DHT22;62824;52.994;-3.936;2022-12-11T08:33:45;0.90;99.90
74384;DHT22;62824;52.994;-3.936;2022-12-11T08:36:13;1.00;99.90
74384;DHT22;62824;52.994;-3.936;2022-12-11T08:38:39;1.00;99.90
74384;DHT22;62824;52.994;-3.936;2022-12-11T08:41:13;1.00;99.90
74384;DHT22;62824;52.994;-3.936;2022-12-11T08:43:40;1.00;99.90
74384;DHT22;62824;52.994;-3.936;2022-12-11T08:46:06;1.00;99.90
74384;DHT22;62824;52.994;-3.936;2022-12-11T08:48:33;1.10;99.90
74384;DHT22;62824;52.994;-3.936;2022-12-11T08:51:01;1.20;99.90
74384;DHT22;62824;52.994;-3.936;2022-12-11T08:53:28;1.20;99.90
74384;DHT22;62824;52.994;-3.936;2022-12-11T08:56:00;1.20;99.90
74384;DHT22;62824;52.994;-3.936;2022-12-11T08:58:26;1.20;99.90
74384;DHT22;62824;52.994;-3.936;2022-12-11T09:00:51;1.20;99.90
74384;DHT22;62824;52.994;-3.936;2022-12-11T09:03:17;1.30;99.90
74384;DHT22;62824;52.994;-3.936;2022-12-11T09:05:43;1.30;99.90
74384;DHT22;62824;52.994;-3.936;2022-12-11T09:08:09;1.30;99.90
74384;DHT22;62824;52.994;-3.936;2022-12-11T09:10:35;1.20;99.90
74384;DHT22;62824;52.994;-3.936;2022-12-11T09:13:00;1.20;99.90
74384;DHT22;62824;52.994;-3.936;2022-12-11T09:15:26;1.30;99.90
74384;DHT22;62824;52.994;-3.936;2022-12-11T09:17:52;1.30;99.90
74384;DHT22;62824;52.994;-3.936;2022-12-11T09:20:17;1.30;99.90
74384;DHT22;62824;52.994;-3.936;2022-12-11T09:22:43;1.30;99.90
74384;DHT22;62824;52.994;-3.936;2022-12-11T09:25:09;1.30;99.90
74384;DHT22;62824;52.994;-3.936;2022-12-11T09:27:35;1.40;99.90
74384;DHT22;62824;52.994;-3.936;2022-12-11T09:30:01;1.40;99.90
74384;DHT22;62824;52.994;-3.936;2022-12-11T09:32:26;1.40;99.90
74384;DHT22;62824;52.994;-3.936;2022-12-11T09:34:52;1.40;99.90
74384;DHT22;62824;52.994;-3.936;2022-12-11T09:37:18;1.40;99.90
74384;DHT22;62824;52.994;-3.936;2022-12-11T09:39:44;1.50;99.90
74384;DHT22;62824;52.994;-3.936;2022-12-11T09:45:02;1.50;99.90
74384;DHT22;62824;52.994;-3.936;2022-12-11T09:47:44;1.60;99.90
74384;DHT22;62824;52.994;-3.936;2022-12-11T09:50:24;1.60;99.90
74384;DHT22;62824;52.994;-3.936;2022-12-11T09:53:12;1.70;99.90
74384;DHT22;62824;52.994;-3.936;2022-12-11T10:06:59;1.70;99.90
74384;DHT22;62824;52.994;-3.936;2022-12-11T10:17:40;1.90;99.90
74384;DHT22;62824;52.994;-3.936;2022-12-11T10:22:37;2.00;99.90
74384;DHT22;62824;52.994;-3.936;2022-12-11T10:25:05;2.00;99.90
74384;DHT22;62824;52.994;-3.936;2022-12-11T10:27:35;2.00;99.90
74384;DHT22;62824;52.994;-3.936;2022-12-11T10:30:27;2.00;99.90
74384;DHT22;62824;52.994;-3.936;2022-12-11T10:35:55;2.10;99.90
74384;DHT22;62824;52.994;-3.936;2022-12-11T10:41:05;2.10;99.90
74384;DHT22;62824;52.994;-3.936;2022-12-11T10:43:36;2.00;99.90
74384;DHT22;62824;52.994;-3.936;2022-12-11T10:46:05;2.00;99.90
74384;DHT22;62824;52.994;-3.936;2022-12-11T10:48:32;2.00;99.90
74384;DHT22;62824;52.994;-3.936;2022-12-11T10:51:04;2.00;99.90
74384;DHT22;62824;52.994;-3.936;2022-12-11T10:53:34;2.10;99.90
74384;DHT22;62824;52.994;-3.936;2022-12-11T10:56:01;2.00;99.90
74384;DHT22;62824;52.994;-3.936;2022-12-11T10:58:31;2.00;99.90
74384;DHT22;62824;52.994;-3.936;2022-12-11T11:03:29;1.90;99.90
74384;DHT22;62824;52.994;-3.936;2022-12-11T11:06:05;2.00;99.90
74384;DHT22;62824;52.994;-3.936;2022-12-11T11:08:40;2.00;99.90
74384;DHT22;62824;52.994;-3.936;2022-12-11T11:11:24;2.00;99.90
74384;DHT22;62824;52.994;-3.936;2022-12-11T11:14:02;2.00;99.90
74384;DHT22;62824;52.994;-3.936;2022-12-11T11:16:29;2.00;99.90
74384;DHT22;62824;52.994;-3.936;2022-12-11T11:18:55;2.00;99.90
74384;DHT22;62824;52.994;-3.936;2022-12-11T11:21:24;2.10;99.90
74384;DHT22;62824;52.994;-3.936;2022-12-11T11:23:52;2.10;99.90
74384;DHT22;62824;52.994;-3.936;2022-12-11T11:26:20;2.10;99.90
74384;DHT22;62824;52.994;-3.936;2022-12-11T11:28:52;2.20;99.90
74384;DHT22;62824;52.994;-3.936;2022-12-11T11:31:19;2.10;99.90
74384;DHT22;62824;52.994;-3.936;2022-12-11T11:33:57;2.10;99.90
74384;DHT22;62824;52.994;-3.936;2022-12-11T11:36:30;2.20;99.90
74384;DHT22;62824;52.994;-3.936;2022-12-11T11:39:19;2.20;99.90
74384;DHT22;62824;52.994;-3.936;2022-12-11T11:44:39;2.30;99.90
74384;DHT22;62824;52.994;-3.936;2022-12-11T11:47:13;2.30;99.90
74384;DHT22;62824;52.994;-3.936;2022-12-11T11:50:03;2.40;99.90
74384;DHT22;62824;52.994;-3.936;2022-12-11T11:58:01;2.80;99.90
74384;DHT22;62824;52.994;-3.936;2022-12-11T12:00:30;2.80;99.90
74384;DHT22;62824;52.994;-3.936;2022-12-11T12:08:15;2.70;99.90
74384;DHT22;62824;52.994;-3.936;2022-12-11T12:19:41;2.80;99.90
74384;DHT22;62824;52.994;-3.936;2022-12-11T12:22:27;2.80;99.90
74384;DHT22;62824;52.994;-3.936;2022-12-11T12:25:22;2.80;99.90
74384;DHT22;62824;52.994;-3.936;2022-12-11T12:28:28;2.80;99.90
74384;DHT22;62824;52.994;-3.936;2022-12-11T12:44:58;3.20;99.90
74384;DHT22;62824;52.994;-3.936;2022-12-11T12:47:27;3.20;99.90
74384;DHT22;62824;52.994;-3.936;2022-12-11T12:49:57;3.20;99.90
74384;DHT22;62824;52.994;-3.936;2022-12-11T12:52:35;3.00;99.90
74384;DHT22;62824;52.994;-3.936;2022-12-11T12:55:18;2.90;99.90
74384;DHT22;62824;52.994;-3.936;2022-12-11T12:57:51;3.00;99.90
74384;DHT22;62824;52.994;-3.936;2022-12-11T13:00:36;3.00;99.90
74384;DHT22;62824;52.994;-3.936;2022-12-11T13:03:20;2.90;99.90
74384;DHT22;62824;52.994;-3.936;2022-12-11T13:06:01;2.90;99.90
74384;DHT22;62824;52.994;-3.936;2022-12-11T13:11:09;2.60;99.90
74384;DHT22;62824;52.994;-3.936;2022-12-11T13:16:35;2.50;99.90
74384;DHT22;62824;52.994;-3.936;2022-12-11T13:19:01;2.40;99.90
74384;DHT22;62824;52.994;-3.936;2022-12-11T13:21:35;2.30;99.90
74384;DHT22;62824;52.994;-3.936;2022-12-11T13:26:42;2.20;99.90
74384;DHT22;62824;52.994;-3.936;2022-12-11T13:29:36;2.10;99.90
74384;DHT22;62824;52.994;-3.936;2022-12-11T13:32:23;1.90;99.90
74384;DHT22;62824;52.994;-3.936;2022-12-11T13:34:57;1.80;99.90
74384;DHT22;62824;52.994;-3.936;2022-12-11T13:37:33;1.80;99.90
74384;DHT22;62824;52.994;-3.936;2022-12-11T13:40:04;1.80;99.90
74384;DHT22;62824;52.994;-3.936;2022-12-11T13:42:39;1.70;99.90
74384;DHT22;62824;52.994;-3.936;2022-12-11T13:45:18;1.70;99.90
74384;DHT22;62824;52.994;-3.936;2022-12-11T13:47:46;1.60;99.90
74384;DHT22;62824;52.994;-3.936;2022-12-11T13:50:28;1.60;99.90
74384;DHT22;62824;52.994;-3.936;2022-12-11T13:52:59;1.60;99.90
74384;DHT22;62824;52.994;-3.936;2022-12-11T13:55:31;1.60;99.90
74384;DHT22;62824;52.994;-3.936;2022-12-11T13:57:57;1.60;99.90
74384;DHT22;62824;52.994;-3.936;2022-12-11T14:00:26;1.70;99.90
74384;DHT22;62824;52.994;-3.936;2022-12-11T14:02:53;1.70;99.90
74384;DHT22;62824;52.994;-3.936;2022-12-11T14:05:20;1.80;99.90
74384;DHT22;62824;52.994;-3.936;2022-12-11T14:07:52;1.60;99.90
74384;DHT22;62824;52.994;-3.936;2022-12-11T14:10:27;1.60;99.90
74384;DHT22;62824;52.994;-3.936;2022-12-11T14:15:20;1.50;99.90
74384;DHT22;62824;52.994;-3.936;2022-12-11T14:17:46;1.50;99.90
74384;DHT22;62824;52.994;-3.936;2022-12-11T14:20:25;1.50;99.90
74384;DHT22;62824;52.994;-3.936;2022-12-11T14:23:24;1.40;99.90
74384;DHT22;62824;52.994;-3.936;2022-12-11T14:28:23;1.40;99.90
74384;DHT22;62824;52.994;-3.936;2022-12-11T14:30:55;1.30;99.90
74384;DHT22;62824;52.994;-3.936;2022-12-11T14:33:24;1.30;99.90
74384;DHT22;62824;52.994;-3.936;2022-12-11T14:35:53;1.30;99.90
74384;DHT22;62824;52.994;-3.936;2022-12-11T14:38:37;1.30;99.90
74384;DHT22;62824;52.994;-3.936;2022-12-11T14:41:14;1.20;99.90
74384;DHT22;62824;52.994;-3.936;2022-12-11T14:43:48;1.30;99.90
74384;DHT22;62824;52.994;-3.936;2022-12-11T14:46:42;1.30;99.90
74384;DHT22;62824;52.994;-3.936;2022-12-11T14:52:38;1.20;99.90
74384;DHT22;62824;52.994;-3.936;2022-12-11T14:55:11;1.20;99.90
74384;DHT22;62824;52.994;-3.936;2022-12-11T14:57:39;1.20;99.90
74384;DHT22;62824;52.994;-3.936;2022-12-11T15:00:06;1.20;99.90
74384;DHT22;62824;52.994;-3.936;2022-12-11T15:02:34;1.10;99.90
74384;DHT22;62824;52.994;-3.936;2022-12-11T15:05:14;1.10;99.90
74384;DHT22;62824;52.994;-3.936;2022-12-11T15:08:02;1.10;99.90
74384;DHT22;62824;52.994;-3.936;2022-12-11T15:12:56;1.00;99.90
74384;DHT22;62824;52.994;-3.936;2022-12-11T15:15:22;1.00;99.90
74384;DHT22;62824;52.994;-3.936;2022-12-11T15:17:50;0.90;99.90
74384;DHT22;62824;52.994;-3.936;2022-12-11T15:20:25;0.90;99.90
74384;DHT22;62824;52.994;-3.936;2022-12-11T15:22:52;0.90;99.90
74384;DHT22;62824;52.994;-3.936;2022-12-11T15:25:23;1.00;99.90
74384;DHT22;62824;52.994;-3.936;2022-12-11T15:27:52;1.10;99.90
74384;DHT22;62824;52.994;-3.936;2022-12-11T15:35:36;1.20;99.90
74384;DHT22;62824;52.994;-3.936;2022-12-11T15:38:03;1.20;99.90
74384;DHT22;62824;52.994;-3.936;2022-12-11T15:40:28;1.20;99.90
74384;DHT22;62824;52.994;-3.936;2022-12-11T15:42:55;1.10;99.90
74384;DHT22;62824;52.994;-3.936;2022-12-11T15:45:24;1.20;99.90
74384;DHT22;62824;52.994;-3.936;2022-12-11T15:47:51;1.10;99.90
74384;DHT22;62824;52.994;-3.936;2022-12-11T15:50:21;1.00;99.90
74384;DHT22;62824;52.994;-3.936;2022-12-11T15:52:48;0.80;99.90
74384;DHT22;62824;52.994;-3.936;2022-12-11T15:55:15;0.70;99.90
74384;DHT22;62824;52.994;-3.936;2022-12-11T15:57:55;0.60;99.90
74384;DHT22;62824;52.994;-3.936;2022-12-11T16:00:23;0.60;99.90
74384;DHT22;62824;52.994;-3.936;2022-12-11T16:02:49;0.70;99.90
74384;DHT22;62824;52.994;-3.936;2022-12-11T16:05:16;0.60;99.90
74384;DHT22;62824;52.994;-3.936;2022-12-11T16:07:44;0.50;99.90
74384;DHT22;62824;52.994;-3.936;2022-12-11T16:10:15;0.50;99.90
74384;DHT22;62824;52.994;-3.936;2022-12-11T16:12:42;0.30;99.90
74384;DHT22;62824;52.994;-3.936;2022-12-11T16:15:09;0.40;99.90
74384;DHT22;62824;52.994;-3.936;2022-12-11T16:17:35;0.50;99.90
74384;DHT22;62824;52.994;-3.936;2022-12-11T16:20:01;0.50;99.90
74384;DHT22;62824;52.994;-3.936;2022-12-11T16:22:27;0.50;99.90
74384;DHT22;62824;52.994;-3.936;2022-12-11T16:24:53;0.60;99.90
74384;DHT22;62824;52.994;-3.936;2022-12-11T16:27:20;0.60;99.90
74384;DHT22;62824;52.994;-3.936;2022-12-11T16:29:46;0.60;99.90
74384;DHT22;62824;52.994;-3.936;2022-12-11T16:32:12;0.60;99.90
74384;DHT22;62824;52.994;-3.936;2022-12-11T16:34:38;0.60;99.90
74384;DHT22;62824;52.994;-3.936;2022-12-11T16:37:07;0.60;99.90
74384;DHT22;62824;52.994;-3.936;2022-12-11T16:39:35;0.60;99.90
74384;DHT22;62824;52.994;-3.936;2022-12-11T16:42:02;0.60;99.90
74384;DHT22;62824;52.994;-3.936;2022-12-11T16:44:28;0.60;99.90
74384;DHT22;62824;52.994;-3.936;2022-12-11T16:46:54;0.60;99.90
74384;DHT22;62824;52.994;-3.936;2022-12-11T16:49:21;0.60;99.90
74384;DHT22;62824;52.994;-3.936;2022-12-11T16:51:47;0.60;99.90
74384;DHT22;62824;52.994;-3.936;2022-12-11T16:54:16;0.60;99.90
74384;DHT22;62824;52.994;-3.936;2022-12-11T16:56:42;0.50;99.90
74384;DHT22;62824;52.994;-3.936;2022-12-11T16:59:09;0.50;99.90
74384;DHT22;62824;52.994;-3.936;2022-12-11T17:01:35;0.50;99.90
74384;DHT22;62824;52.994;-3.936;2022-12-11T17:04:01;0.50;99.90
74384;DHT22;62824;52.994;-3.936;2022-12-11T17:06:27;0.50;99.90
74384;DHT22;62824;52.994;-3.936;2022-12-11T17:08:53;0.40;99.90
74384;DHT22;62824;52.994;-3.936;2022-12-11T17:11:21;0.50;99.90
74384;DHT22;62824;52.994;-3.936;2022-12-11T17:13:56;0.40;99.90
74384;DHT22;62824;52.994;-3.936;2022-12-11T17:16:23;0.40;99.90
74384;DHT22;62824;52.994;-3.936;2022-12-11T17:19:00;0.40;99.90
74384;DHT22;62824;52.994;-3.936;2022-12-11T17:21:27;0.50;99.90
74384;DHT22;62824;52.994;-3.936;2022-12-11T17:23:53;0.50;99.90
74384;DHT22;62824;52.994;-3.936;2022-12-11T17:26:19;0.50;99.90
74384;DHT22;62824;52.994;-3.936;2022-12-11T17:28:45;0.50;99.90
74384;DHT22;62824;52.994;-3.936;2022-12-11T17:31:17;0.40;99.90